Rockenbach Airport

Jump to: basic info | weather | runways | comments

Related pages: nearby airports | nearby navaids | notams | map

Basic information (top)

Codes: LL97
Location: lon 42.338902, lat -88.084801, elev 800 ft / 244 m msl
Status: small_airport

Weather (top)

Current conditions for Waukegan Regional Airport 11nm (20km) ENE (rec'd 2014/08/30 11:52Z):

KUGN 301152Z 21008KT 7SM SCT014 22/20 A2982 RMK AO2 SLP087 60000 70010 T02170200 10239 20217 53002

Airport forecast for Kenosha Regional Airport 17nm (31km) NNE (rec'd 2014/08/30 12:21Z):

TAF KENW 301120Z 3012/3112 24013G19KT P6SM -SHRA SCT008 OVC015 
     FM301300 23013G18KT P6SM VCSH SCT008 OVC015 
     FM301600 22013KT P6SM VCSH SCT018 BKN030 OVC050 
     FM301700 24014KT P6SM VCTS BKN035CB 
     FM302100 24012KT P6SM BKN040 
     FM310200 24004KT P6SM SCT040 
     FM310800 VRB03KT 1SM BR SCT060

Runways (top)

N/S: 2,000 x 100 ft (610 x 30 m) — grass — not lighted

Latest comments (top)

No comments yet for Rockenbach Airport

More... (top)

See also NOTAMs and nearby airports and navaids, or visit the Rockenbach Airport page at the main OurAirports website..